createdAt,value
2019-04-10T04:53:46.263Z,12.47
2019-04-10T04:56:17.952Z,12.65
2019-04-10T04:58:49.698Z,12.72
2019-04-10T05:01:21.683Z,12.81
2019-04-10T05:03:53.441Z,13.01
2019-04-10T05:06:26.547Z,13.06
2019-04-10T05:08:59.227Z,13.13
2019-04-10T05:11:30.860Z,13.38
2019-04-10T05:14:02.748Z,13.35
2019-04-10T05:16:35.179Z,13.40
2019-04-10T05:19:06.686Z,13.58
2019-04-10T05:21:38.515Z,13.77
2019-04-10T05:24:10.058Z,13.78
2019-04-10T05:26:42.722Z,13.89
2019-04-10T05:29:15.380Z,14.20
2019-04-10T05:31:46.878Z,14.37
2019-04-10T05:34:18.304Z,14.55
2019-04-10T05:36:51.134Z,14.83
2019-04-10T05:39:22.866Z,14.97
2019-04-10T05:41:54.855Z,15.44
2019-04-10T05:44:26.376Z,15.59
2019-04-10T05:46:57.998Z,15.54
2019-04-10T05:49:31.075Z,15.59
2019-04-10T05:52:04.120Z,15.78
2019-04-10T05:54:36.106Z,15.91
2019-04-10T05:57:08.356Z,15.88
2019-04-10T05:59:40.462Z,16.41
2019-04-10T06:02:11.960Z,16.51
2019-04-10T06:04:45.412Z,16.57
2019-04-10T06:07:17.160Z,16.56
2019-04-10T06:09:57.794Z,17.04
2019-04-10T06:12:22.691Z,17.00
2019-04-10T06:14:54.943Z,17.48
2019-04-10T06:20:57.359Z,17.67
2019-04-10T06:45:29.917Z,19.03
2019-04-10T06:54:20.973Z,19.50
2019-04-10T06:56:52.854Z,19.45
2019-04-10T06:59:25.824Z,19.80
2019-04-10T07:02:11.364Z,20.15
2019-04-10T07:59:35.562Z,23.99
2019-04-10T08:02:09.770Z,23.63
2019-04-10T08:09:12.531Z,22.92
2019-04-10T08:11:44.790Z,22.37
2019-04-10T08:53:48.854Z,22.10
2019-04-10T08:56:22.538Z,21.87
2019-04-10T08:58:55.042Z,21.62
2019-04-10T09:01:26.665Z,21.75
2019-04-10T09:03:59.355Z,21.94
2019-04-10T09:06:31.510Z,22.16
2019-04-10T09:09:03.516Z,22.19
2019-04-10T09:11:35.912Z,22.06
2019-04-10T09:14:08.569Z,22.02
2019-04-10T09:16:40.165Z,21.93
2019-04-10T09:19:12.035Z,21.70
2019-04-10T09:21:45.685Z,21.84
2019-04-10T09:24:17.524Z,21.72
2019-04-10T09:26:48.917Z,21.77
2019-04-10T09:29:23.185Z,21.96
2019-04-10T09:31:53.805Z,21.96
2019-04-10T09:34:25.674Z,21.73
2019-04-10T09:36:57.705Z,21.78
2019-04-10T09:39:31.795Z,21.95
2019-04-10T09:42:03.502Z,21.99
2019-04-10T09:44:35.996Z,21.84
2019-04-10T09:47:07.783Z,22.01
2019-04-10T09:49:43.695Z,21.99
2019-04-10T09:52:12.470Z,21.83
2019-04-10T09:54:46.658Z,21.84
2019-04-10T09:57:20.129Z,21.77
2019-04-10T09:59:52.641Z,21.77
2019-04-10T10:02:25.254Z,22.04
2019-04-10T10:04:57.782Z,22.00
2019-04-10T10:07:29.451Z,22.12
2019-04-10T10:10:02.330Z,22.38
2019-04-10T10:12:36.456Z,22.51
2019-04-10T10:15:09.470Z,22.78
2019-04-10T10:17:41.280Z,22.65
2019-04-10T10:20:13.850Z,22.63
2019-04-10T10:22:45.563Z,22.61
2019-04-10T10:25:17.417Z,22.58
2019-04-10T10:27:49.169Z,22.53
2019-04-10T10:30:23.269Z,22.56
2019-04-10T10:32:55.137Z,22.75
2019-04-10T10:35:27.280Z,22.78
2019-04-10T10:37:58.953Z,22.76
2019-04-10T10:40:30.516Z,22.88
2019-04-10T10:43:02.464Z,22.97
2019-04-10T10:45:36.660Z,23.06
2019-04-10T10:48:09.963Z,23.01
2019-04-10T10:50:41.663Z,22.86
2019-04-10T10:53:12.999Z,22.74
2019-04-10T10:55:45.502Z,22.86
2019-04-10T10:58:17.537Z,22.80
2019-04-10T11:00:50.149Z,22.87
2019-04-10T11:03:22.417Z,22.92
2019-04-10T11:05:54.913Z,23.00
2019-04-10T11:08:26.899Z,23.01
2019-04-10T11:10:59.383Z,22.97
2019-04-10T11:13:33.056Z,23.02
2019-04-10T11:16:07.376Z,22.97
2019-04-10T11:18:38.812Z,22.89
2019-04-10T11:21:12.403Z,23.09
2019-04-10T11:23:43.922Z,23.32
2019-04-10T11:26:20.228Z,23.25
2019-04-10T11:28:49.542Z,23.23
2019-04-10T11:31:21.206Z,23.13
2019-04-10T11:34:04.127Z,23.09
2019-04-10T11:36:36.206Z,23.14
2019-04-10T11:39:18.644Z,23.11
2019-04-10T11:41:43.386Z,23.14
2019-04-10T11:44:17.164Z,22.97
2019-04-10T11:46:49.524Z,22.93
2019-04-10T11:49:22.855Z,22.92
2019-04-10T11:51:59.216Z,23.05
2019-04-10T11:54:29.897Z,23.11
2019-04-10T11:57:04.224Z,23.29
2019-04-10T11:59:37.963Z,23.14
2019-04-10T12:02:10.119Z,23.09
2019-04-10T12:04:52.117Z,23.19
2019-04-10T12:07:49.135Z,23.30
2019-04-10T12:12:21.741Z,23.44
2019-04-10T12:14:54.216Z,23.42
